createdAt,value
2022-11-13T00:00:35.307Z,101205.00
2022-11-13T00:03:14.636Z,101212.75
2022-11-13T00:06:00.267Z,101209.25
2022-11-13T00:08:39.834Z,101203.03
2022-11-13T00:11:20.373Z,101200.41
2022-11-13T00:13:59.944Z,101198.41
2022-11-13T00:16:40.824Z,101199.22
2022-11-13T00:19:23.144Z,101202.81
2022-11-13T00:22:02.635Z,101200.41
2022-11-13T00:24:41.888Z,101198.19
2022-11-13T00:27:21.336Z,101203.16
2022-11-13T00:30:00.620Z,101201.56
2022-11-13T00:32:41.639Z,101209.66
2022-11-13T00:35:21.199Z,101203.13
2022-11-13T00:38:00.856Z,101202.25
2022-11-13T00:40:40.258Z,101198.53
2022-11-13T00:43:19.820Z,101198.41
2022-11-13T00:45:59.067Z,101201.34
2022-11-13T00:48:39.935Z,101209.66
2022-11-13T00:51:19.827Z,101202.59
2022-11-13T00:53:59.260Z,101208.09
2022-11-13T00:56:38.907Z,101203.75
2022-11-13T00:59:18.642Z,101200.41
2022-11-13T01:01:58.251Z,101193.50
2022-11-13T01:04:39.482Z,101190.91
2022-11-13T01:07:18.779Z,101199.94
2022-11-13T01:09:58.367Z,101191.31
2022-11-13T01:12:38.347Z,101188.28
2022-11-13T01:15:17.627Z,101192.78
2022-11-13T01:17:56.299Z,101194.94
2022-11-13T01:20:37.372Z,101204.22
2022-11-13T01:23:16.607Z,101198.56
2022-11-13T01:25:55.115Z,101195.47
2022-11-13T01:28:34.400Z,101203.03
2022-11-13T01:31:14.715Z,101199.84
2022-11-13T01:33:53.331Z,101207.94
2022-11-13T01:36:34.616Z,101199.59
2022-11-13T01:39:12.990Z,101198.28
2022-11-13T01:41:52.720Z,101197.25
2022-11-13T01:44:48.204Z,101203.47
2022-11-13T01:47:27.987Z,101208.50
2022-11-13T01:50:11.647Z,101202.09
2022-11-13T01:52:52.482Z,101201.81
2022-11-13T01:55:31.168Z,101201.28
2022-11-13T01:58:11.463Z,101196.75
2022-11-13T02:00:51.011Z,101197.19
2022-11-13T02:03:30.557Z,101193.34
2022-11-13T02:06:10.091Z,101193.66
2022-11-13T02:08:52.042Z,101196.09
2022-11-13T02:11:31.367Z,101196.81
2022-11-13T02:14:11.921Z,101201.88
2022-11-13T02:16:53.380Z,101189.09
2022-11-13T02:19:34.462Z,101186.56
2022-11-13T02:22:18.970Z,101188.44
2022-11-13T02:25:01.435Z,101190.97
2022-11-13T02:27:42.825Z,101190.81
2022-11-13T02:30:27.257Z,101184.16
2022-11-13T02:33:20.883Z,101190.91
2022-11-13T02:36:00.682Z,101183.38
2022-11-13T02:38:40.105Z,101182.44
2022-11-13T02:41:20.882Z,101174.78
2022-11-13T02:44:00.251Z,101168.06
2022-11-13T02:46:39.580Z,101172.19
2022-11-13T02:49:18.720Z,101171.41
2022-11-13T02:51:58.192Z,101167.91
2022-11-13T02:54:37.610Z,101166.97
2022-11-13T02:57:17.529Z,101173.13
2022-11-13T02:59:56.893Z,101158.88
2022-11-13T03:02:36.655Z,101164.06
2022-11-13T03:05:15.962Z,101165.72
2022-11-13T03:07:55.911Z,101167.47
2022-11-13T03:10:35.230Z,101163.41
2022-11-13T03:13:15.802Z,101158.69
2022-11-13T03:15:55.352Z,101164.88
2022-11-13T03:18:34.762Z,101161.63
2022-11-13T03:21:15.222Z,101154.13
2022-11-13T03:23:54.968Z,101157.44
2022-11-13T03:26:34.836Z,101159.19
2022-11-13T03:29:16.076Z,101145.88
2022-11-13T03:31:55.636Z,101146.00
2022-11-13T03:34:33.976Z,101134.28
2022-11-13T03:37:13.422Z,101131.03
2022-11-13T03:39:52.814Z,101132.69
2022-11-13T03:42:32.135Z,101132.09
2022-11-13T03:45:13.175Z,101132.25
2022-11-13T03:47:52.397Z,101130.50
2022-11-13T03:50:32.053Z,101130.44
2022-11-13T03:53:11.329Z,101128.16
2022-11-13T03:55:50.854Z,101129.16
2022-11-13T03:58:30.315Z,101130.16
2022-11-13T04:01:12.518Z,101130.44
2022-11-13T04:03:51.296Z,101128.97
2022-11-13T04:06:30.537Z,101125.06
2022-11-13T04:09:09.056Z,101125.34
2022-11-13T04:11:48.598Z,101126.41
2022-11-13T04:14:28.035Z,101123.06
2022-11-13T04:17:08.935Z,101112.91
2022-11-13T04:19:48.292Z,101113.84
2022-11-13T04:22:27.784Z,101111.44
2022-11-13T04:25:07.586Z,101121.56
2022-11-13T04:27:47.418Z,101114.41
2022-11-13T04:30:27.034Z,101114.41
2022-11-13T04:33:07.971Z,101115.06
2022-11-13T04:35:48.882Z,101117.22
2022-11-13T04:38:28.689Z,101111.88
2022-11-13T04:41:17.113Z,101112.03
2022-11-13T04:43:56.935Z,101108.75
2022-11-13T04:46:36.503Z,101115.63
2022-11-13T04:49:17.227Z,101101.34
2022-11-13T04:51:56.752Z,101111.66
2022-11-13T04:54:36.132Z,101101.63
2022-11-13T04:57:15.977Z,101102.28
2022-11-13T04:59:55.644Z,101101.41
2022-11-13T05:02:34.885Z,101102.56
2022-11-13T05:05:15.553Z,101089.06
2022-11-13T05:07:54.066Z,101101.91
2022-11-13T05:10:34.571Z,101113.19
2022-11-13T05:13:12.976Z,101103.16
2022-11-13T05:15:52.644Z,101107.44
2022-11-13T05:18:33.815Z,101096.50
2022-11-13T05:21:14.653Z,101104.91
2022-11-13T05:23:54.103Z,101105.81
2022-11-13T05:26:33.780Z,101112.78
2022-11-13T05:29:12.933Z,101112.03
2022-11-13T05:31:52.396Z,101117.31
2022-11-13T05:34:31.875Z,101110.63
2022-11-13T05:37:12.717Z,101105.56
2022-11-13T05:39:52.144Z,101111.28
2022-11-13T05:42:31.506Z,101113.72
2022-11-13T05:45:11.905Z,101112.03
2022-11-13T05:47:51.424Z,101123.34
2022-11-13T05:50:32.027Z,101121.00
2022-11-13T05:53:13.287Z,101124.47
2022-11-13T05:55:52.577Z,101117.03
2022-11-13T05:58:32.576Z,101123.91
2022-11-13T06:01:12.074Z,101129.06
2022-11-13T06:03:51.588Z,101135.84
2022-11-13T06:06:31.007Z,101128.06
2022-11-13T06:09:17.372Z,101127.19
2022-11-13T06:11:56.674Z,101131.41
2022-11-13T06:14:36.052Z,101133.81
2022-11-13T06:17:15.193Z,101137.81
2022-11-13T06:19:54.673Z,101137.03
2022-11-13T06:22:34.052Z,101143.69
2022-11-13T06:25:14.583Z,101149.06
2022-11-13T06:27:54.215Z,101149.19
2022-11-13T06:30:33.444Z,101154.38
2022-11-13T06:33:27.215Z,101154.88
2022-11-13T06:36:08.444Z,101151.78
2022-11-13T06:38:49.166Z,101153.59
2022-11-13T06:41:31.684Z,101148.50
2022-11-13T06:44:09.953Z,101149.81
2022-11-13T06:46:49.236Z,101146.97
2022-11-13T06:49:30.037Z,101146.56
2022-11-13T06:52:09.169Z,101146.91
2022-11-13T06:54:48.560Z,101137.13
2022-11-13T06:57:26.996Z,101150.06
2022-11-13T07:00:08.118Z,101138.63
2022-11-13T07:02:50.028Z,101145.09
2022-11-13T07:05:30.829Z,101145.59
2022-11-13T07:08:10.029Z,101145.09
2022-11-13T07:10:54.119Z,101149.63
2022-11-13T07:13:33.389Z,101141.59
2022-11-13T07:16:17.380Z,101149.56
2022-11-13T07:18:57.150Z,101152.53
2022-11-13T07:21:37.971Z,101142.63
2022-11-13T07:24:17.851Z,101143.84
2022-11-13T07:26:57.176Z,101135.50
2022-11-13T07:29:39.501Z,101135.81
2022-11-13T07:32:17.752Z,101142.84
2022-11-13T07:34:57.004Z,101137.84
2022-11-13T07:37:38.157Z,101130.41
2022-11-13T07:40:18.031Z,101130.66
2022-11-13T07:42:58.163Z,101136.81
2022-11-13T07:45:37.342Z,101137.84
2022-11-13T07:48:15.718Z,101132.88
2022-11-13T07:50:55.734Z,101130.59
2022-11-13T07:53:39.351Z,101132.53
2022-11-13T07:56:23.170Z,101131.25
2022-11-13T07:59:02.619Z,101126.44
2022-11-13T08:01:40.862Z,101126.72
2022-11-13T08:04:20.297Z,101126.03
2022-11-13T08:06:59.879Z,101129.72
2022-11-13T08:09:40.683Z,101131.00
2022-11-13T08:12:20.006Z,101128.81
2022-11-13T08:14:58.643Z,101128.25
2022-11-13T08:17:37.222Z,101119.13
2022-11-13T08:20:16.563Z,101127.13
2022-11-13T08:22:58.243Z,101119.66
2022-11-13T08:25:38.855Z,101119.16
2022-11-13T08:28:18.006Z,101118.63
2022-11-13T08:30:57.366Z,101122.28
2022-11-13T08:33:36.746Z,101119.22
2022-11-13T08:36:16.024Z,101125.50
2022-11-13T08:38:55.495Z,101132.56
2022-11-13T08:41:35.257Z,101132.56
2022-11-13T08:44:15.055Z,101131.13
2022-11-13T08:46:54.226Z,101129.59
2022-11-13T08:49:34.397Z,101139.38
2022-11-13T08:52:13.722Z,101129.47
2022-11-13T08:54:53.173Z,101134.16
2022-11-13T08:57:33.758Z,101137.78
2022-11-13T09:00:13.580Z,101127.72
2022-11-13T09:02:55.179Z,101136.28
2022-11-13T09:05:34.835Z,101139.97
2022-11-13T09:08:14.020Z,101133.28
2022-11-13T09:10:53.430Z,101134.34
2022-11-13T09:13:35.831Z,101128.63
2022-11-13T09:16:18.376Z,101135.69
2022-11-13T09:18:57.721Z,101136.81
2022-11-13T09:21:37.101Z,101137.81
2022-11-13T09:24:16.305Z,101134.41
2022-11-13T09:26:55.575Z,101130.06
2022-11-13T09:29:36.395Z,101133.69
2022-11-13T09:32:16.115Z,101124.50
2022-11-13T09:34:55.235Z,101122.16
2022-11-13T09:37:35.196Z,101113.81
2022-11-13T09:40:18.089Z,101114.13
2022-11-13T09:42:57.884Z,101116.00
2022-11-13T09:45:40.461Z,101103.13
2022-11-13T09:48:27.049Z,101106.88
2022-11-13T09:51:08.520Z,101092.66
2022-11-13T09:53:48.730Z,101103.78
2022-11-13T09:56:29.150Z,101094.28
2022-11-13T09:59:16.808Z,101100.44
2022-11-13T10:02:03.643Z,101088.66
2022-11-13T10:04:51.509Z,101092.06
2022-11-13T10:07:37.251Z,101081.91
2022-11-13T10:10:35.410Z,101083.91
2022-11-13T10:13:17.052Z,101082.38
2022-11-13T10:16:03.999Z,101074.06
2022-11-13T10:18:46.110Z,101068.25
2022-11-13T10:21:30.964Z,101065.75
2022-11-13T10:24:15.405Z,101062.25
2022-11-13T10:26:57.024Z,101056.34
2022-11-13T10:29:36.629Z,101053.94
2022-11-13T10:32:20.109Z,101047.19
2022-11-13T10:35:01.914Z,101038.59
2022-11-13T10:37:50.259Z,101036.91
2022-11-13T10:40:30.595Z,101031.84
2022-11-13T10:43:15.687Z,101020.81
2022-11-13T10:45:56.157Z,101014.81
2022-11-13T10:48:36.335Z,101019.13
2022-11-13T10:51:24.564Z,101007.16
2022-11-13T10:54:17.713Z,101008.09
2022-11-13T10:57:01.113Z,101006.41
2022-11-13T10:59:41.205Z,101007.25
2022-11-13T11:02:21.364Z,101008.13
2022-11-13T11:05:05.695Z,101001.25
2022-11-13T11:07:45.536Z,101004.69
2022-11-13T11:10:27.924Z,100997.03
2022-11-13T11:13:10.785Z,100996.16
2022-11-13T11:15:52.400Z,101003.09
2022-11-13T11:18:36.219Z,100985.91
2022-11-13T11:21:17.569Z,100982.47
2022-11-13T11:23:59.070Z,100979.91
2022-11-13T11:26:41.049Z,100983.34
2022-11-13T11:29:23.170Z,100979.88
2022-11-13T11:32:06.811Z,100974.75
2022-11-13T11:34:48.160Z,100958.44
2022-11-13T11:37:31.811Z,100955.84
2022-11-13T11:40:18.774Z,100955.81
2022-11-13T11:43:02.750Z,100949.81
2022-11-13T11:45:42.225Z,100950.69
2022-11-13T11:48:22.877Z,100941.19
2022-11-13T11:51:05.330Z,100932.59
2022-11-13T11:53:49.299Z,100934.34
2022-11-13T11:56:35.214Z,100929.16
2022-11-13T11:59:21.474Z,100923.91
2022-11-13T12:02:25.754Z,100919.63
2022-11-13T12:05:19.547Z,100912.78
2022-11-13T12:08:14.784Z,100919.63
2022-11-13T12:10:58.926Z,100911.03
2022-11-13T12:13:43.474Z,100905.84
2022-11-13T12:16:25.706Z,100902.50
2022-11-13T12:19:07.613Z,100910.25
2022-11-13T12:21:53.834Z,100903.38
2022-11-13T12:24:43.735Z,100899.91
2022-11-13T12:27:27.061Z,100897.31
2022-11-13T12:30:14.252Z,100892.97
2022-11-13T12:33:04.379Z,100882.66
2022-11-13T12:35:46.222Z,100887.88
2022-11-13T12:38:36.340Z,100871.59
2022-11-13T12:41:19.775Z,100874.16
2022-11-13T12:44:05.201Z,100865.59
2022-11-13T12:46:46.190Z,100869.03
2022-11-13T12:49:32.284Z,100865.63
2022-11-13T12:52:20.840Z,100869.09
2022-11-13T12:55:07.521Z,100865.69
2022-11-13T12:57:48.814Z,100863.13
2022-11-13T13:00:31.577Z,100859.72
2022-11-13T13:03:21.843Z,100860.56
2022-11-13T13:06:11.321Z,100864.03
2022-11-13T13:08:58.378Z,100864.06
2022-11-13T13:11:40.699Z,100852.03
2022-11-13T13:14:25.890Z,100858.94
2022-11-13T13:17:18.200Z,100849.53
2022-11-13T13:20:03.019Z,100850.41
2022-11-13T13:22:42.339Z,100854.69
2022-11-13T13:25:26.442Z,100847.81
2022-11-13T13:28:19.912Z,100852.13
2022-11-13T13:31:05.120Z,100847.81
2022-11-13T13:33:51.534Z,100862.38
2022-11-13T13:36:36.874Z,100852.06
2022-11-13T13:39:26.197Z,100853.75
2022-11-13T13:42:13.205Z,100855.38
2022-11-13T13:45:01.274Z,100849.31
2022-11-13T13:47:42.004Z,100841.53
2022-11-13T13:50:23.064Z,100840.59
2022-11-13T13:53:04.246Z,100843.06
2022-11-13T13:55:47.167Z,100836.19
2022-11-13T13:58:28.785Z,100836.06
2022-11-13T14:01:18.998Z,100836.91
2022-11-13T14:04:07.187Z,100830.84
2022-11-13T14:06:51.324Z,100836.81
2022-11-13T14:09:32.095Z,100830.66
2022-11-13T14:12:18.722Z,100832.28
2022-11-13T14:14:58.061Z,100829.56
2022-11-13T14:17:39.451Z,100826.09
2022-11-13T14:20:19.812Z,100826.84
2022-11-13T14:23:02.090Z,100828.38
2022-11-13T14:25:43.432Z,100827.44
2022-11-13T14:28:22.630Z,100824.72
2022-11-13T14:31:03.978Z,100819.50
2022-11-13T14:33:44.980Z,100827.03
2022-11-13T14:36:27.756Z,100814.13
2022-11-13T14:39:07.016Z,100810.63
2022-11-13T14:41:51.656Z,100818.97
2022-11-13T14:44:32.533Z,100807.81
2022-11-13T14:47:22.176Z,100811.13
2022-11-13T14:50:10.451Z,100803.34
2022-11-13T14:52:57.792Z,100804.91
2022-11-13T14:55:38.791Z,100804.81
2022-11-13T14:58:29.009Z,100805.53
2022-11-13T15:01:16.557Z,100809.66
2022-11-13T15:03:54.996Z,100802.63
2022-11-13T15:06:38.641Z,100799.88
2022-11-13T15:09:18.621Z,100800.53
2022-11-13T15:11:58.123Z,100807.31
2022-11-13T15:14:41.082Z,100797.03
2022-11-13T15:17:21.212Z,100802.06
2022-11-13T15:20:04.127Z,100803.59
2022-11-13T15:22:46.576Z,100806.88
2022-11-13T15:25:26.435Z,100808.41
2022-11-13T15:28:05.925Z,100800.47
2022-11-13T15:30:46.648Z,100804.50
2022-11-13T15:33:26.019Z,100804.19
2022-11-13T15:36:05.436Z,100811.59
2022-11-13T15:38:45.141Z,100807.25
2022-11-13T15:41:25.995Z,100808.06
2022-11-13T15:44:08.809Z,100809.72
2022-11-13T15:46:49.554Z,100807.00
2022-11-13T15:49:27.885Z,100810.94
2022-11-13T15:52:07.844Z,100807.53
2022-11-13T15:54:48.578Z,100810.84
2022-11-13T15:57:28.775Z,100811.56
2022-11-13T16:00:11.775Z,100803.59
2022-11-13T16:02:54.986Z,100811.09
2022-11-13T16:05:34.159Z,100807.59
2022-11-13T16:08:13.789Z,100809.09
2022-11-13T16:10:54.686Z,100807.22
2022-11-13T16:13:33.912Z,100806.25
2022-11-13T16:16:16.433Z,100811.28
2022-11-13T16:19:00.164Z,100816.19
2022-11-13T16:21:41.076Z,100816.75
2022-11-13T16:24:23.963Z,100814.72
2022-11-13T16:27:03.955Z,100812.06
2022-11-13T16:29:43.194Z,100814.56
2022-11-13T16:32:22.924Z,100804.13
2022-11-13T16:35:03.541Z,100808.22
2022-11-13T16:37:42.751Z,100814.00
2022-11-13T16:40:24.324Z,100807.13
2022-11-13T16:43:03.550Z,100806.22
2022-11-13T16:45:44.971Z,100808.63
2022-11-13T16:48:24.161Z,100806.94
2022-11-13T16:51:04.834Z,100800.38
2022-11-13T16:53:44.351Z,100787.78
2022-11-13T16:56:28.301Z,100793.38
2022-11-13T16:59:07.554Z,100789.84
2022-11-13T17:01:47.300Z,100797.13
2022-11-13T17:04:26.551Z,100787.56
2022-11-13T17:07:07.434Z,100791.78
2022-11-13T17:09:55.120Z,100785.94
2022-11-13T17:12:43.760Z,100789.47
2022-11-13T17:15:23.290Z,100786.63
2022-11-13T17:18:03.048Z,100785.59
2022-11-13T17:20:42.250Z,100790.59
2022-11-13T17:23:22.981Z,100787.78
2022-11-13T17:26:02.512Z,100790.22
2022-11-13T17:28:40.798Z,100796.22
2022-11-13T17:31:20.452Z,100784.53
2022-11-13T17:34:00.619Z,100792.03
2022-11-13T17:36:40.007Z,100790.22
2022-11-13T17:39:20.763Z,100788.66
2022-11-13T17:42:00.253Z,100790.06
2022-11-13T17:44:39.690Z,100788.25
2022-11-13T17:47:18.942Z,100795.69
2022-11-13T17:50:03.924Z,100791.81
2022-11-13T17:52:47.212Z,100800.16
2022-11-13T17:55:28.242Z,100805.78
2022-11-13T17:58:07.861Z,100798.69
2022-11-13T18:00:47.331Z,100798.28
2022-11-13T18:03:27.241Z,100801.25
2022-11-13T18:06:06.473Z,100804.81
2022-11-13T18:08:45.712Z,100795.47
2022-11-13T18:11:26.721Z,100806.03
2022-11-13T18:14:06.290Z,100802.47
2022-11-13T18:16:45.642Z,100798.53
2022-11-13T18:19:25.216Z,100807.53
2022-11-13T18:22:04.541Z,100803.00
2022-11-13T18:24:44.308Z,100795.47
2022-11-13T18:27:25.193Z,100797.31
2022-11-13T18:30:04.775Z,100809.34
2022-11-13T18:32:44.191Z,100806.44
2022-11-13T18:35:23.633Z,100809.69
2022-11-13T18:38:03.452Z,100801.63
2022-11-13T18:40:42.052Z,100810.66
2022-11-13T18:43:22.955Z,100818.06
2022-11-13T18:46:04.867Z,100814.22
2022-11-13T18:48:44.802Z,100816.47
2022-11-13T18:51:25.493Z,100800.91
2022-11-13T18:54:09.495Z,100805.06
2022-11-13T18:56:49.404Z,100804.63
2022-11-13T18:59:30.983Z,100808.09
2022-11-13T19:02:11.503Z,100804.72
2022-11-13T19:04:51.044Z,100808.19
2022-11-13T19:07:30.244Z,100807.97
2022-11-13T19:10:09.744Z,100811.66
2022-11-13T19:12:50.541Z,100806.47
2022-11-13T19:15:31.654Z,100814.09
2022-11-13T19:18:11.031Z,100811.41
2022-11-13T19:20:51.035Z,100813.16
2022-11-13T19:23:31.263Z,100817.75
2022-11-13T19:26:12.960Z,100817.34
2022-11-13T19:28:52.866Z,100819.88
2022-11-13T19:31:34.752Z,100816.81
2022-11-13T19:34:15.101Z,100817.75
2022-11-13T19:36:54.715Z,100826.03
2022-11-13T19:39:34.272Z,100822.09
2022-11-13T19:42:13.852Z,100812.09
2022-11-13T19:44:52.251Z,100815.91
2022-11-13T19:47:33.232Z,100809.31
2022-11-13T19:50:12.964Z,100820.47
2022-11-13T19:52:52.370Z,100810.88
2022-11-13T19:55:31.789Z,100813.03
2022-11-13T19:58:11.082Z,100812.09
2022-11-13T20:00:50.654Z,100813.72
2022-11-13T20:03:30.580Z,100807.03
2022-11-13T20:06:09.520Z,100807.38
2022-11-13T20:08:47.722Z,100808.66
2022-11-13T20:11:26.233Z,100816.97
2022-11-13T20:14:05.763Z,100816.50
2022-11-13T20:16:45.182Z,100812.59
2022-11-13T20:19:26.160Z,100817.38
2022-11-13T20:22:05.612Z,100817.16
2022-11-13T20:24:44.163Z,100809.66
2022-11-13T20:27:23.786Z,100808.75
2022-11-13T20:30:03.504Z,100800.63
2022-11-13T20:32:42.404Z,100802.44
2022-11-13T20:35:23.331Z,100806.22
2022-11-13T20:38:02.732Z,100807.41
2022-11-13T20:40:42.595Z,100793.91
2022-11-13T20:43:21.130Z,100802.34
2022-11-13T20:46:03.806Z,100799.09
2022-11-13T20:48:44.405Z,100801.75
2022-11-13T20:51:26.860Z,100800.94
2022-11-13T20:54:06.222Z,100797.72
2022-11-13T20:56:45.669Z,100793.47
2022-11-13T20:59:25.217Z,100794.47
2022-11-13T21:02:04.876Z,100801.19
2022-11-13T21:04:44.253Z,100798.78
2022-11-13T21:07:24.423Z,100800.47
2022-11-13T21:10:04.922Z,100794.38
2022-11-13T21:12:44.164Z,100800.13
2022-11-13T21:15:23.711Z,100805.19
2022-11-13T21:18:03.675Z,100802.47
2022-11-13T21:20:43.092Z,100805.78
2022-11-13T21:23:24.441Z,100800.72
2022-11-13T21:26:05.857Z,100803.94
2022-11-13T21:28:45.212Z,100798.88
2022-11-13T21:31:24.830Z,100793.00
2022-11-13T21:34:04.383Z,100794.56
2022-11-13T21:36:45.216Z,100787.03
2022-11-13T21:39:26.180Z,100786.72
2022-11-13T21:42:05.926Z,100790.06
2022-11-13T21:44:45.482Z,100788.03
2022-11-13T21:47:26.330Z,100785.63
2022-11-13T21:50:05.740Z,100783.09
2022-11-13T21:52:44.959Z,100779.19
2022-11-13T21:55:26.081Z,100779.75
2022-11-13T21:58:05.460Z,100779.81
2022-11-13T22:00:45.110Z,100784.44
2022-11-13T22:03:24.419Z,100773.03
2022-11-13T22:06:15.333Z,100778.22
2022-11-13T22:08:57.043Z,100778.06
2022-11-13T22:11:37.831Z,100778.44
2022-11-13T22:14:17.560Z,100771.16
2022-11-13T22:16:57.252Z,100773.94
2022-11-13T22:19:36.758Z,100778.22
2022-11-13T22:22:16.312Z,100778.22
2022-11-13T22:24:55.914Z,100785.09
2022-11-13T22:27:36.831Z,100777.34
2022-11-13T22:30:16.724Z,100780.06
2022-11-13T22:32:56.791Z,100777.44
2022-11-13T22:35:36.393Z,100775.25
2022-11-13T22:38:16.843Z,100782.03
2022-11-13T22:40:57.469Z,100784.59
2022-11-13T22:43:38.531Z,100783.78
2022-11-13T22:46:19.704Z,100780.88
2022-11-13T22:49:01.903Z,100777.28
2022-11-13T22:51:42.420Z,100779.09
2022-11-13T22:54:21.953Z,100773.88
2022-11-13T22:57:04.433Z,100764.59
2022-11-13T22:59:44.404Z,100765.19
2022-11-13T23:02:24.036Z,100762.66
2022-11-13T23:05:03.552Z,100763.59
2022-11-13T23:07:42.224Z,100759.34
2022-11-13T23:10:25.724Z,100750.44
2022-11-13T23:13:05.127Z,100754.16
2022-11-13T23:15:46.111Z,100745.72
2022-11-13T23:18:25.542Z,100749.91
2022-11-13T23:21:06.954Z,100745.78
2022-11-13T23:23:46.457Z,100738.09
2022-11-13T23:26:25.607Z,100737.47
2022-11-13T23:29:04.945Z,100736.34
2022-11-13T23:31:45.662Z,100742.63
2022-11-13T23:34:45.518Z,100728.94
2022-11-13T23:37:23.972Z,100729.47
2022-11-13T23:40:03.442Z,100733.25
2022-11-13T23:42:54.781Z,100725.88
2022-11-13T23:45:35.176Z,100723.47
2022-11-13T23:48:16.041Z,100726.66
2022-11-13T23:50:55.361Z,100723.06
2022-11-13T23:53:34.721Z,100730.72
2022-11-13T23:56:13.302Z,100728.50
2022-11-13T23:58:53.182Z,100729.72
